createdAt,value
2023-05-05T00:00:50.963Z,95015.00
2023-05-05T00:01:50.969Z,95019.00
2023-05-05T00:02:50.945Z,95017.00
2023-05-05T00:03:51.068Z,95015.00
2023-05-05T00:04:50.967Z,95015.00
2023-05-05T00:05:50.934Z,95015.00
2023-05-05T00:06:50.961Z,95015.00
2023-05-05T00:07:50.926Z,95017.00
2023-05-05T00:08:50.941Z,95017.00
2023-05-05T00:09:50.932Z,95017.00
2023-05-05T00:10:50.924Z,95017.00
2023-05-05T00:11:50.940Z,95019.00
2023-05-05T00:12:50.974Z,95019.00
2023-05-05T00:13:50.922Z,95019.00
2023-05-05T00:14:50.903Z,95017.00
2023-05-05T00:15:50.912Z,95019.00
2023-05-05T00:16:50.916Z,95019.00
2023-05-05T00:17:50.958Z,95015.00
2023-05-05T00:18:50.930Z,95017.00
2023-05-05T00:19:50.899Z,95017.00
2023-05-05T00:20:50.944Z,95019.00
2023-05-05T00:21:50.881Z,95015.00
2023-05-05T00:22:50.890Z,95015.00
2023-05-05T00:23:50.918Z,95017.00
2023-05-05T00:24:50.889Z,95017.00
2023-05-05T00:25:50.906Z,95019.00
2023-05-05T00:26:50.865Z,95019.00
2023-05-05T00:27:50.866Z,95017.00
2023-05-05T00:28:50.860Z,95017.00
2023-05-05T00:29:50.866Z,95019.00
2023-05-05T00:30:50.956Z,95021.00
2023-05-05T00:31:50.858Z,95019.00
2023-05-05T00:32:50.906Z,95021.00
2023-05-05T00:33:50.893Z,95021.00
2023-05-05T00:34:50.864Z,95023.00
2023-05-05T00:35:50.864Z,95021.00
2023-05-05T00:36:50.864Z,95023.00
2023-05-05T00:37:50.866Z,95023.00
2023-05-05T00:38:50.850Z,95019.00
2023-05-05T00:39:50.869Z,95019.00
2023-05-05T00:40:50.894Z,95019.00
2023-05-05T00:41:50.845Z,95021.00
2023-05-05T00:42:50.956Z,95021.00
2023-05-05T00:43:50.835Z,95021.00
2023-05-05T00:44:50.832Z,95021.00
2023-05-05T00:45:50.847Z,95023.00
2023-05-05T00:46:50.922Z,95023.00
2023-05-05T00:47:50.868Z,95025.00
2023-05-05T00:48:50.908Z,95025.00
2023-05-05T00:49:50.834Z,95025.00
2023-05-05T00:50:50.880Z,95029.00
2023-05-05T00:51:50.829Z,95029.00
2023-05-05T00:52:50.825Z,95029.00
2023-05-05T00:53:50.819Z,95027.00
2023-05-05T00:54:50.829Z,95027.00
2023-05-05T00:55:50.847Z,95027.00
2023-05-05T00:56:50.841Z,95025.00
2023-05-05T00:57:50.854Z,95023.00
2023-05-05T00:58:50.854Z,95023.00
2023-05-05T00:59:50.820Z,95025.00
2023-05-05T01:00:50.831Z,95021.00
2023-05-05T01:01:50.845Z,95023.00
2023-05-05T01:02:50.969Z,95021.00
2023-05-05T01:03:50.924Z,95023.00
2023-05-05T01:04:50.821Z,95021.00
2023-05-05T01:05:50.827Z,95019.00
2023-05-05T01:06:50.860Z,95019.00
2023-05-05T01:07:50.845Z,95017.00
2023-05-05T01:08:50.846Z,95017.00
2023-05-05T01:10:00.864Z,95019.00
2023-05-05T01:10:51.825Z,95019.00
2023-05-05T01:11:50.802Z,95021.00
2023-05-05T01:12:50.855Z,95019.00
2023-05-05T01:13:50.799Z,95019.00
2023-05-05T01:14:50.792Z,95017.00
2023-05-05T01:15:50.836Z,95017.00
2023-05-05T01:16:50.778Z,95019.00
2023-05-05T01:17:50.800Z,95015.00
2023-05-05T01:18:50.767Z,95017.00
2023-05-05T01:19:50.749Z,95017.00
2023-05-05T01:20:50.753Z,95015.00
2023-05-05T01:21:50.721Z,95019.00
2023-05-05T01:22:50.743Z,95019.00
2023-05-05T01:23:50.733Z,95019.00
2023-05-05T01:24:50.713Z,95017.00
2023-05-05T01:25:50.714Z,95019.00
2023-05-05T01:26:50.690Z,95019.00
2023-05-05T01:27:50.689Z,95017.00
2023-05-05T01:28:50.697Z,95021.00
2023-05-05T01:29:50.681Z,95023.00
2023-05-05T01:30:50.684Z,95021.00
2023-05-05T01:31:50.724Z,95025.00
2023-05-05T01:32:50.711Z,95023.00
2023-05-05T01:33:50.649Z,95023.00
2023-05-05T01:34:50.656Z,95023.00
2023-05-05T01:35:50.637Z,95023.00
2023-05-05T01:36:50.632Z,95023.00
2023-05-05T01:37:50.660Z,95023.00
2023-05-05T01:38:50.622Z,95023.00
2023-05-05T01:39:50.595Z,95027.00
2023-05-05T01:40:50.614Z,95025.00
2023-05-05T01:41:50.581Z,95025.00
2023-05-05T01:42:50.610Z,95027.00
2023-05-05T01:43:50.569Z,95023.00
2023-05-05T01:44:50.614Z,95025.00
2023-05-05T01:45:50.565Z,95023.00
2023-05-05T01:46:50.568Z,95023.00
2023-05-05T01:47:50.560Z,95023.00
2023-05-05T01:48:50.567Z,95025.00
2023-05-05T01:49:50.535Z,95025.00
2023-05-05T01:50:50.536Z,95025.00
2023-05-05T01:51:50.505Z,95025.00
2023-05-05T01:52:50.518Z,95025.00
2023-05-05T01:53:50.504Z,95027.00
2023-05-05T01:54:50.535Z,95025.00
2023-05-05T01:55:50.488Z,95027.00
2023-05-05T01:56:50.492Z,95025.00
2023-05-05T01:57:50.482Z,95027.00
2023-05-05T01:58:50.497Z,95027.00
2023-05-05T01:59:50.457Z,95027.00
2023-05-05T02:00:50.458Z,95029.00
2023-05-05T02:01:50.463Z,95029.00
2023-05-05T02:02:50.533Z,95027.00
2023-05-05T02:03:50.420Z,95027.00
2023-05-05T02:04:50.415Z,95029.00
2023-05-05T02:05:50.422Z,95027.00
2023-05-05T02:06:50.426Z,95027.00
2023-05-05T02:07:50.398Z,95029.00
2023-05-05T02:08:50.409Z,95031.00
2023-05-05T02:09:50.391Z,95032.00
2023-05-05T02:10:50.417Z,95034.00
2023-05-05T02:11:50.374Z,95036.00
2023-05-05T02:12:50.402Z,95038.00
2023-05-05T02:13:50.387Z,95038.00
2023-05-05T02:14:50.407Z,95038.00
2023-05-05T02:15:50.390Z,95036.00
2023-05-05T02:16:50.335Z,95040.00
2023-05-05T02:17:50.342Z,95044.00
2023-05-05T02:18:50.347Z,95048.00
2023-05-05T02:19:50.313Z,95050.00
2023-05-05T02:20:50.326Z,95046.00
2023-05-05T02:21:50.294Z,95052.00
2023-05-05T02:22:50.291Z,95054.00
2023-05-05T02:23:50.290Z,95056.00
2023-05-05T02:24:50.298Z,95054.00
2023-05-05T02:25:50.282Z,95050.00
2023-05-05T02:26:50.290Z,95048.00
2023-05-05T02:27:50.322Z,95048.00
2023-05-05T02:28:50.337Z,95050.00
2023-05-05T02:29:50.324Z,95052.00
2023-05-05T02:30:50.306Z,95050.00
2023-05-05T02:31:50.337Z,95050.00
2023-05-05T02:32:50.314Z,95052.00
2023-05-05T02:33:50.318Z,95050.00
2023-05-05T02:34:50.316Z,95050.00
2023-05-05T02:35:50.305Z,95048.00
2023-05-05T02:36:50.319Z,95048.00
2023-05-05T02:37:50.311Z,95048.00
2023-05-05T02:38:50.309Z,95050.00
2023-05-05T02:39:50.312Z,95050.00
2023-05-05T02:40:50.348Z,95052.00
2023-05-05T02:41:50.318Z,95052.00
2023-05-05T02:42:50.485Z,95052.00
2023-05-05T02:43:50.318Z,95048.00
2023-05-05T02:44:50.316Z,95050.00
2023-05-05T02:45:50.346Z,95052.00
2023-05-05T02:46:50.397Z,95050.00
2023-05-05T02:47:50.496Z,95048.00
2023-05-05T02:48:50.351Z,95046.00
2023-05-05T02:49:50.353Z,95046.00
2023-05-05T02:50:50.383Z,95046.00
2023-05-05T02:51:50.360Z,95048.00
2023-05-05T02:52:50.380Z,95048.00
2023-05-05T02:53:50.379Z,95046.00
2023-05-05T02:54:50.388Z,95050.00
2023-05-05T02:55:50.383Z,95048.00
2023-05-05T02:56:50.399Z,95048.00
2023-05-05T02:57:50.405Z,95044.00
2023-05-05T02:58:50.387Z,95048.00
2023-05-05T02:59:50.425Z,95046.00
2023-05-05T03:00:50.428Z,95046.00
2023-05-05T03:01:50.492Z,95048.00
2023-05-05T03:02:50.498Z,95048.00
2023-05-05T03:03:50.591Z,95048.00
2023-05-05T03:04:50.418Z,95050.00
2023-05-05T03:05:50.449Z,95050.00
2023-05-05T03:06:50.436Z,95050.00
2023-05-05T03:07:50.481Z,95050.00
2023-05-05T03:08:50.479Z,95056.00
2023-05-05T03:09:50.471Z,95054.00
2023-05-05T03:10:50.495Z,95056.00
2023-05-05T03:11:50.471Z,95056.00
2023-05-05T03:12:50.525Z,95054.00
2023-05-05T03:13:50.478Z,95056.00
2023-05-05T03:14:50.482Z,95052.00
2023-05-05T03:15:50.642Z,95054.00
2023-05-05T03:16:50.537Z,95054.00
2023-05-05T03:17:50.608Z,95054.00
2023-05-05T03:18:50.498Z,95060.00
2023-05-05T03:19:50.503Z,95056.00
2023-05-05T03:20:50.514Z,95058.00
2023-05-05T03:21:50.518Z,95058.00
2023-05-05T03:22:50.563Z,95056.00
2023-05-05T03:23:50.539Z,95058.00
2023-05-05T03:24:50.544Z,95058.00
2023-05-05T03:25:50.596Z,95058.00
2023-05-05T03:26:50.601Z,95060.00
2023-05-05T03:27:50.612Z,95060.00
2023-05-05T03:28:50.620Z,95060.00
2023-05-05T03:29:50.596Z,95058.00
2023-05-05T03:30:50.669Z,95058.00
2023-05-05T03:31:50.682Z,95058.00
2023-05-05T03:32:50.699Z,95058.00
2023-05-05T03:33:50.637Z,95056.00
2023-05-05T03:34:50.634Z,95058.00
2023-05-05T03:35:50.678Z,95054.00
2023-05-05T03:36:50.676Z,95054.00
2023-05-05T03:37:50.658Z,95052.00
2023-05-05T03:38:50.663Z,95054.00
2023-05-05T03:39:50.680Z,95050.00
2023-05-05T03:40:50.712Z,95054.00
2023-05-05T03:41:50.680Z,95052.00
2023-05-05T03:42:50.697Z,95050.00
2023-05-05T03:43:50.679Z,95054.00
2023-05-05T03:44:50.690Z,95052.00
2023-05-05T03:45:50.753Z,95056.00
2023-05-05T03:46:50.687Z,95052.00
2023-05-05T03:47:50.762Z,95052.00
2023-05-05T03:48:50.696Z,95052.00
2023-05-05T03:49:50.707Z,95052.00
2023-05-05T03:50:50.721Z,95052.00
2023-05-05T03:51:50.716Z,95052.00
2023-05-05T03:52:50.733Z,95052.00
2023-05-05T03:53:50.735Z,95050.00
2023-05-05T03:54:50.746Z,95050.00
2023-05-05T03:55:50.739Z,95050.00
2023-05-05T03:56:50.786Z,95050.00
2023-05-05T03:57:50.753Z,95048.00
2023-05-05T03:58:50.770Z,95052.00
2023-05-05T03:59:50.765Z,95052.00
2023-05-05T04:00:50.782Z,95052.00
2023-05-05T04:01:50.786Z,95050.00
2023-05-05T04:02:50.866Z,95050.00
2023-05-05T04:03:50.865Z,95048.00
2023-05-05T04:04:50.813Z,95046.00
2023-05-05T04:05:50.827Z,95046.00
2023-05-05T04:06:50.860Z,95048.00
2023-05-05T04:07:50.842Z,95052.00
2023-05-05T04:08:50.854Z,95052.00
2023-05-05T04:09:50.901Z,95050.00
2023-05-05T04:10:50.851Z,95050.00
2023-05-05T04:11:50.860Z,95052.00
2023-05-05T04:12:50.914Z,95048.00
2023-05-05T04:13:50.896Z,95046.00
2023-05-05T04:14:50.867Z,95046.00
2023-05-05T04:15:50.933Z,95046.00
2023-05-05T04:16:50.897Z,95046.00
2023-05-05T04:17:50.991Z,95046.00
2023-05-05T04:18:50.903Z,95046.00
2023-05-05T04:19:50.919Z,95048.00
2023-05-05T04:20:50.944Z,95048.00
2023-05-05T04:21:50.939Z,95046.00
2023-05-05T04:22:52.588Z,95048.00
2023-05-05T04:23:50.956Z,95048.00
2023-05-05T04:24:50.958Z,95052.00
2023-05-05T04:25:50.981Z,95050.00
2023-05-05T04:26:50.982Z,95050.00
2023-05-05T04:27:51.422Z,95052.00
2023-05-05T04:28:51.028Z,95050.00
2023-05-05T04:29:50.992Z,95054.00
2023-05-05T04:30:51.013Z,95054.00
2023-05-05T04:31:51.048Z,95056.00
2023-05-05T04:32:51.135Z,95060.00
2023-05-05T04:33:51.036Z,95062.00
2023-05-05T04:34:51.039Z,95060.00
2023-05-05T04:35:51.073Z,95060.00
2023-05-05T04:36:51.069Z,95062.00
2023-05-05T04:37:51.109Z,95060.00
2023-05-05T04:38:51.121Z,95060.00
2023-05-05T04:39:51.087Z,95064.00
2023-05-05T04:40:51.119Z,95062.00
2023-05-05T04:41:51.107Z,95058.00
2023-05-05T04:42:51.094Z,95064.00
2023-05-05T04:43:51.091Z,95062.00
2023-05-05T04:44:51.126Z,95064.00
2023-05-05T04:45:51.097Z,95066.00
2023-05-05T04:46:51.251Z,95068.00
2023-05-05T04:47:51.178Z,95068.00
2023-05-05T04:48:51.134Z,95068.00
2023-05-05T04:49:51.177Z,95068.00
2023-05-05T04:50:51.152Z,95068.00
2023-05-05T04:51:51.191Z,95070.00
2023-05-05T04:52:52.637Z,95070.00
2023-05-05T04:53:51.201Z,95070.00
2023-05-05T04:54:51.222Z,95070.00
2023-05-05T04:55:51.207Z,95074.00
2023-05-05T04:56:51.203Z,95076.00
2023-05-05T04:57:51.255Z,95078.00
2023-05-05T04:58:51.216Z,95081.00
2023-05-05T04:59:51.239Z,95079.00
2023-05-05T05:00:51.231Z,95079.00
2023-05-05T05:01:51.290Z,95081.00
2023-05-05T05:02:51.328Z,95081.00
2023-05-05T05:03:51.302Z,95079.00
2023-05-05T05:04:51.277Z,95079.00
2023-05-05T05:05:51.285Z,95079.00
2023-05-05T05:06:51.299Z,95079.00
2023-05-05T05:07:51.302Z,95079.00
2023-05-05T05:08:51.319Z,95079.00
2023-05-05T05:09:51.331Z,95081.00
2023-05-05T05:10:51.318Z,95081.00
2023-05-05T05:11:51.329Z,95083.00
2023-05-05T05:12:51.374Z,95083.00
2023-05-05T05:13:51.351Z,95085.00
2023-05-05T05:14:51.334Z,95081.00
2023-05-05T05:15:51.339Z,95081.00
2023-05-05T05:16:51.430Z,95083.00
2023-05-05T05:17:51.593Z,95083.00
2023-05-05T05:18:51.357Z,95085.00
2023-05-05T05:19:51.356Z,95083.00
2023-05-05T05:20:51.368Z,95085.00
2023-05-05T05:21:51.404Z,95083.00
2023-05-05T05:22:51.408Z,95085.00
2023-05-05T05:23:51.387Z,95083.00
2023-05-05T05:24:51.388Z,95083.00
2023-05-05T05:25:51.433Z,95089.00
2023-05-05T05:26:51.461Z,95089.00
2023-05-05T05:28:02.273Z,95089.00
2023-05-05T05:28:52.411Z,95089.00
2023-05-05T05:29:51.396Z,95089.00
2023-05-05T05:30:51.493Z,95085.00
2023-05-05T05:31:51.445Z,95091.00
2023-05-05T05:32:51.479Z,95083.00
2023-05-05T05:33:51.380Z,95085.00
2023-05-05T05:34:51.363Z,95085.00
2023-05-05T05:35:51.354Z,95081.00
2023-05-05T05:36:51.388Z,95087.00
2023-05-05T05:37:51.348Z,95087.00
2023-05-05T05:38:51.414Z,95087.00
2023-05-05T05:39:51.370Z,95089.00
2023-05-05T05:40:51.332Z,95085.00
2023-05-05T05:41:51.933Z,95087.00
2023-05-05T05:42:51.306Z,95083.00
2023-05-05T05:43:51.391Z,95085.00
2023-05-05T05:44:51.275Z,95081.00
2023-05-05T05:45:51.309Z,95079.00
2023-05-05T05:46:51.333Z,95081.00
2023-05-05T05:47:51.314Z,95081.00
2023-05-05T05:48:51.379Z,95078.00
2023-05-05T05:49:51.240Z,95078.00
2023-05-05T05:50:51.260Z,95078.00
2023-05-05T05:51:51.221Z,95079.00
2023-05-05T05:52:51.218Z,95081.00
2023-05-05T05:53:51.232Z,95079.00
2023-05-05T05:54:51.254Z,95079.00
2023-05-05T05:55:51.297Z,95081.00
2023-05-05T05:56:51.343Z,95081.00
2023-05-05T05:57:51.354Z,95079.00
2023-05-05T05:58:51.428Z,95081.00
2023-05-05T05:59:51.458Z,95083.00
2023-05-05T06:00:51.450Z,95081.00
2023-05-05T06:01:51.457Z,95081.00
2023-05-05T06:02:51.592Z,95081.00
2023-05-05T06:03:51.533Z,95083.00
2023-05-05T06:04:51.616Z,95079.00
2023-05-05T06:05:51.555Z,95079.00
2023-05-05T06:06:51.943Z,95081.00
2023-05-05T06:07:51.612Z,95079.00
2023-05-05T06:08:51.601Z,95079.00
2023-05-05T06:09:51.578Z,95083.00
2023-05-05T06:10:51.654Z,95081.00
2023-05-05T06:11:51.626Z,95083.00
2023-05-05T06:12:51.683Z,95087.00
2023-05-05T06:13:51.637Z,95083.00
2023-05-05T06:14:51.615Z,95087.00
2023-05-05T06:15:51.671Z,95085.00
2023-05-05T06:16:51.610Z,95083.00
2023-05-05T06:17:51.665Z,95081.00
2023-05-05T06:18:51.605Z,95079.00
2023-05-05T06:19:52.978Z,95079.00
2023-05-05T06:20:51.596Z,95078.00
2023-05-05T06:21:51.608Z,95078.00
2023-05-05T06:22:51.574Z,95078.00
2023-05-05T06:23:51.592Z,95076.00
2023-05-05T06:24:51.572Z,95076.00
2023-05-05T06:25:51.568Z,95078.00
2023-05-05T06:26:51.547Z,95074.00
2023-05-05T06:27:51.538Z,95074.00
2023-05-05T06:28:51.955Z,95072.00
2023-05-05T06:29:51.517Z,95070.00
2023-05-05T06:30:51.511Z,95066.00
2023-05-05T06:31:51.540Z,95066.00
2023-05-05T06:32:51.544Z,95064.00
2023-05-05T06:33:51.506Z,95062.00
2023-05-05T06:34:51.494Z,95058.00
2023-05-05T06:35:51.524Z,95058.00
2023-05-05T06:36:51.488Z,95060.00
2023-05-05T06:37:51.460Z,95058.00
2023-05-05T06:38:51.962Z,95062.00
2023-05-05T06:39:51.517Z,95064.00
2023-05-05T06:40:51.428Z,95066.00
2023-05-05T06:41:51.419Z,95064.00
2023-05-05T06:42:51.409Z,95066.00
2023-05-05T06:43:51.403Z,95066.00
2023-05-05T06:44:51.412Z,95066.00
2023-05-05T06:45:51.399Z,95064.00
2023-05-05T06:46:51.468Z,95064.00
2023-05-05T06:47:51.408Z,95066.00
2023-05-05T06:48:51.388Z,95062.00
2023-05-05T06:49:51.391Z,95060.00
2023-05-05T06:50:51.388Z,95058.00
2023-05-05T06:51:51.410Z,95058.00
2023-05-05T06:52:51.434Z,95060.00
2023-05-05T06:53:51.329Z,95058.00
2023-05-05T06:54:51.352Z,95062.00
2023-05-05T06:55:51.319Z,95062.00
2023-05-05T06:56:51.308Z,95062.00
2023-05-05T06:57:51.329Z,95062.00
2023-05-05T06:58:51.337Z,95060.00
2023-05-05T06:59:51.295Z,95058.00
2023-05-05T07:00:51.324Z,95056.00
2023-05-05T07:01:51.296Z,95056.00
2023-05-05T07:02:51.396Z,95054.00
2023-05-05T07:03:51.299Z,95054.00
2023-05-05T07:04:51.246Z,95052.00
2023-05-05T07:05:51.257Z,95050.00
2023-05-05T07:06:51.267Z,95048.00
2023-05-05T07:07:51.242Z,95048.00
2023-05-05T07:08:51.300Z,95046.00
2023-05-05T07:09:51.223Z,95046.00
2023-05-05T07:10:51.222Z,95046.00
2023-05-05T07:11:51.233Z,95046.00
2023-05-05T07:12:51.237Z,95046.00
2023-05-05T07:13:51.188Z,95044.00
2023-05-05T07:14:51.372Z,95046.00
2023-05-05T07:15:51.184Z,95046.00
2023-05-05T07:16:51.257Z,95046.00
2023-05-05T07:17:51.231Z,95044.00
2023-05-05T07:18:51.215Z,95042.00
2023-05-05T07:19:51.149Z,95042.00
2023-05-05T07:20:51.137Z,95042.00
2023-05-05T07:21:51.132Z,95040.00
2023-05-05T07:22:51.162Z,95044.00
2023-05-05T07:23:51.149Z,95040.00
2023-05-05T07:24:51.765Z,95040.00
2023-05-05T07:25:51.180Z,95036.00
2023-05-05T07:26:51.134Z,95036.00
2023-05-05T07:27:51.144Z,95034.00
2023-05-05T07:28:51.481Z,95032.00
2023-05-05T07:29:51.155Z,95031.00
2023-05-05T07:30:51.191Z,95031.00
2023-05-05T07:31:51.302Z,95029.00
2023-05-05T07:32:51.294Z,95027.00
2023-05-05T07:33:51.481Z,95027.00
2023-05-05T07:34:51.286Z,95029.00
2023-05-05T07:35:52.015Z,95025.00
2023-05-05T07:36:51.426Z,95025.00
2023-05-05T07:37:51.284Z,95025.00
2023-05-05T07:38:51.305Z,95023.00
2023-05-05T07:39:51.327Z,95021.00
2023-05-05T07:40:51.393Z,95019.00
2023-05-05T07:41:51.367Z,95019.00
2023-05-05T07:42:51.366Z,95015.00
2023-05-05T07:43:51.381Z,95011.00
2023-05-05T07:44:51.414Z,95009.00
2023-05-05T07:45:51.470Z,95009.00
2023-05-05T07:46:51.484Z,95005.00
2023-05-05T07:47:51.495Z,95003.00
2023-05-05T07:48:51.501Z,94999.00
2023-05-05T07:49:51.512Z,94997.00
2023-05-05T07:50:51.518Z,94999.00
2023-05-05T07:51:51.555Z,94995.00
2023-05-05T07:52:56.333Z,94997.00
2023-05-05T07:53:52.560Z,94995.00
2023-05-05T07:54:51.515Z,94997.00
2023-05-05T07:55:51.521Z,94997.00
2023-05-05T07:56:51.593Z,94993.00
2023-05-05T07:57:51.482Z,94995.00
2023-05-05T07:58:51.541Z,94995.00
2023-05-05T07:59:51.500Z,94991.00
2023-05-05T08:00:51.506Z,94989.00
2023-05-05T08:01:53.125Z,94989.00
2023-05-05T08:02:51.592Z,94989.00
2023-05-05T08:03:51.577Z,94991.00
2023-05-05T08:04:51.442Z,94991.00
2023-05-05T08:05:51.860Z,94989.00
2023-05-05T08:06:51.443Z,94991.00
2023-05-05T08:07:51.537Z,94985.00
2023-05-05T08:08:51.465Z,94989.00
2023-05-05T08:09:51.414Z,94987.00
2023-05-05T08:10:51.450Z,94985.00
2023-05-05T08:11:51.404Z,94984.00
2023-05-05T08:12:51.564Z,94984.00
2023-05-05T08:13:51.376Z,94984.00
2023-05-05T08:14:51.501Z,94982.00
2023-05-05T08:15:51.422Z,94980.00
2023-05-05T08:16:51.366Z,94978.00
2023-05-05T08:17:51.474Z,94978.00
2023-05-05T08:18:51.365Z,94976.00
2023-05-05T08:19:51.360Z,94974.00
2023-05-05T08:20:51.362Z,94974.00
2023-05-05T08:21:51.334Z,94974.00
2023-05-05T08:22:51.361Z,94972.00
2023-05-05T08:23:51.307Z,94974.00
2023-05-05T08:24:51.327Z,94970.00
2023-05-05T08:25:51.318Z,94968.00
2023-05-05T08:26:51.410Z,94966.00
2023-05-05T08:27:51.419Z,94968.00
2023-05-05T08:28:51.384Z,94960.00
2023-05-05T08:29:51.286Z,94960.00
2023-05-05T08:30:51.278Z,94958.00
2023-05-05T08:31:51.294Z,94960.00
2023-05-05T08:32:51.300Z,94954.00
2023-05-05T08:33:51.271Z,94950.00
2023-05-05T08:34:51.271Z,94952.00
2023-05-05T08:35:51.239Z,94950.00
2023-05-05T08:36:51.233Z,94945.00
2023-05-05T08:37:51.256Z,94946.00
2023-05-05T08:38:51.221Z,94943.00
2023-05-05T08:39:51.514Z,94943.00
2023-05-05T08:40:51.215Z,94941.00
2023-05-05T08:41:51.218Z,94939.00
2023-05-05T08:42:51.217Z,94937.00
2023-05-05T08:43:51.210Z,94937.00
2023-05-05T08:44:51.581Z,94935.00
2023-05-05T08:45:51.189Z,94933.00
2023-05-05T08:46:51.204Z,94933.00
2023-05-05T08:47:51.224Z,94933.00
2023-05-05T08:48:51.166Z,94929.00
2023-05-05T08:49:51.154Z,94927.00
2023-05-05T08:50:51.174Z,94927.00
2023-05-05T08:51:51.141Z,94923.00
2023-05-05T08:52:51.369Z,94925.00
2023-05-05T08:53:51.120Z,94925.00
2023-05-05T08:54:51.117Z,94923.00
2023-05-05T08:55:51.133Z,94925.00
2023-05-05T08:56:51.099Z,94923.00
2023-05-05T08:57:51.153Z,94923.00
2023-05-05T08:58:51.088Z,94923.00
2023-05-05T08:59:51.086Z,94923.00
2023-05-05T09:00:51.262Z,94925.00
2023-05-05T09:01:51.055Z,94923.00
2023-05-05T09:02:51.128Z,94925.00
2023-05-05T09:03:51.048Z,94915.00
2023-05-05T09:04:51.056Z,94913.00
2023-05-05T09:05:51.030Z,94913.00
2023-05-05T09:06:51.033Z,94913.00
2023-05-05T09:07:51.084Z,94911.00
2023-05-05T09:08:51.146Z,94911.00
2023-05-05T09:09:51.209Z,94911.00
2023-05-05T09:10:51.240Z,94909.00
2023-05-05T09:11:51.290Z,94911.00
2023-05-05T09:12:51.603Z,94905.00
2023-05-05T09:13:51.398Z,94903.00
2023-05-05T09:14:51.432Z,94903.00
2023-05-05T09:15:51.568Z,94903.00
2023-05-05T09:16:51.677Z,94899.00
2023-05-05T09:17:51.596Z,94897.00
2023-05-05T09:18:51.617Z,94901.00
2023-05-05T09:19:51.708Z,94901.00
2023-05-05T09:20:51.713Z,94897.00
2023-05-05T09:21:51.770Z,94899.00
2023-05-05T09:22:51.782Z,94897.00
2023-05-05T09:23:51.829Z,94893.00
2023-05-05T09:24:51.861Z,94895.00
2023-05-05T09:25:51.894Z,94893.00
2023-05-05T09:26:51.941Z,94890.00
2023-05-05T09:27:51.966Z,94890.00
2023-05-05T09:28:52.045Z,94890.00
2023-05-05T09:29:52.060Z,94890.00
2023-05-05T09:30:52.070Z,94886.00
2023-05-05T09:31:52.064Z,94884.00
2023-05-05T09:32:52.240Z,94884.00
2023-05-05T09:33:52.168Z,94882.00
2023-05-05T09:34:52.550Z,94882.00
2023-05-05T09:35:52.212Z,94876.00
2023-05-05T09:36:52.249Z,94878.00
2023-05-05T09:37:52.288Z,94876.00
2023-05-05T09:38:52.317Z,94872.00
2023-05-05T09:39:52.360Z,94870.00
2023-05-05T09:40:52.394Z,94868.00
2023-05-05T09:41:52.415Z,94866.00
2023-05-05T09:42:52.469Z,94864.00
2023-05-05T09:43:52.715Z,94864.00
2023-05-05T09:44:52.535Z,94864.00
2023-05-05T09:45:52.672Z,94864.00
2023-05-05T09:46:52.712Z,94860.00
2023-05-05T09:47:56.520Z,94858.00
2023-05-05T09:48:53.695Z,94856.00
2023-05-05T09:49:52.650Z,94854.00
2023-05-05T09:50:52.658Z,94854.00
2023-05-05T09:51:52.620Z,94854.00
2023-05-05T09:52:52.633Z,94853.00
2023-05-05T09:53:52.620Z,94851.00
2023-05-05T09:54:52.721Z,94846.00
2023-05-05T09:55:52.644Z,94848.00
2023-05-05T09:56:52.580Z,94843.00
2023-05-05T09:57:52.595Z,94843.00
2023-05-05T09:58:52.678Z,94843.00
2023-05-05T09:59:52.715Z,94843.00
2023-05-05T10:00:52.773Z,94839.00
2023-05-05T10:01:52.890Z,94839.00
2023-05-05T10:02:52.914Z,94835.00
2023-05-05T10:03:53.002Z,94837.00
2023-05-05T10:04:53.082Z,94835.00
2023-05-05T10:05:53.072Z,94835.00
2023-05-05T10:06:53.147Z,94833.00
2023-05-05T10:07:53.205Z,94829.00
2023-05-05T10:08:53.254Z,94829.00
2023-05-05T10:09:53.310Z,94827.00
2023-05-05T10:10:53.383Z,94827.00
2023-05-05T10:11:53.412Z,94827.00
2023-05-05T10:12:53.519Z,94825.00
2023-05-05T10:13:53.550Z,94825.00
2023-05-05T10:14:53.633Z,94825.00
2023-05-05T10:15:53.705Z,94823.00
2023-05-05T10:16:53.694Z,94821.00
2023-05-05T10:18:06.117Z,94821.00
2023-05-05T10:18:54.749Z,94817.00
2023-05-05T10:19:53.750Z,94817.00
2023-05-05T10:20:53.809Z,94813.00
2023-05-05T10:21:53.740Z,94811.00
2023-05-05T10:22:53.719Z,94813.00
2023-05-05T10:23:53.751Z,94817.00
2023-05-05T10:24:53.778Z,94815.00
2023-05-05T10:25:53.826Z,94811.00
2023-05-05T10:26:53.871Z,94813.00
2023-05-05T10:27:54.034Z,94809.00
2023-05-05T10:28:53.946Z,94809.00
2023-05-05T10:29:53.958Z,94806.00
2023-05-05T10:30:53.974Z,94804.00
2023-05-05T10:31:54.069Z,94802.00
2023-05-05T10:33:03.464Z,94798.00
2023-05-05T10:33:55.168Z,94798.00
2023-05-05T10:34:54.080Z,94792.00
2023-05-05T10:35:54.051Z,94794.00
2023-05-05T10:36:54.257Z,94792.00
2023-05-05T10:37:54.004Z,94788.00
2023-05-05T10:38:53.986Z,94790.00
2023-05-05T10:39:53.988Z,94786.00
2023-05-05T10:40:53.990Z,94780.00
2023-05-05T10:41:53.983Z,94782.00
2023-05-05T10:42:54.082Z,94780.00
2023-05-05T10:43:53.960Z,94776.00
2023-05-05T10:44:54.141Z,94774.00
2023-05-05T10:45:54.084Z,94770.00
2023-05-05T10:46:53.933Z,94768.00
2023-05-05T10:47:53.947Z,94766.00
2023-05-05T10:48:53.981Z,94766.00
2023-05-05T10:49:54.070Z,94766.00
2023-05-05T10:50:53.927Z,94764.00
2023-05-05T10:51:54.012Z,94764.00
2023-05-05T10:52:54.098Z,94762.00
2023-05-05T10:53:54.057Z,94760.00
2023-05-05T10:54:54.045Z,94757.00
2023-05-05T10:55:54.044Z,94755.00
2023-05-05T10:56:54.088Z,94755.00
2023-05-05T10:57:54.089Z,94753.00
2023-05-05T10:59:00.287Z,94749.00
2023-05-05T10:59:55.131Z,94749.00
2023-05-05T11:00:54.156Z,94743.00
2023-05-05T11:01:54.101Z,94745.00
2023-05-05T11:02:54.142Z,94741.00
2023-05-05T11:03:54.133Z,94739.00
2023-05-05T11:04:54.102Z,94737.00
2023-05-05T11:05:54.089Z,94733.00
2023-05-05T11:06:54.077Z,94733.00
2023-05-05T11:07:54.106Z,94729.00
2023-05-05T11:08:54.115Z,94727.00
2023-05-05T11:09:54.066Z,94723.00
2023-05-05T11:10:54.087Z,94723.00
2023-05-05T11:11:54.033Z,94719.00
2023-05-05T11:12:54.108Z,94717.00
2023-05-05T11:13:54.010Z,94713.00
2023-05-05T11:14:54.063Z,94710.00
2023-05-05T11:15:54.130Z,94706.00
2023-05-05T11:16:54.039Z,94708.00
2023-05-05T11:17:54.100Z,94704.00
2023-05-05T11:18:53.995Z,94702.00
2023-05-05T11:19:53.983Z,94700.00
2023-05-05T11:20:53.975Z,94698.00
2023-05-05T11:21:53.990Z,94696.00
2023-05-05T11:22:54.001Z,94694.00
2023-05-05T11:23:54.069Z,94692.00
2023-05-05T11:24:54.077Z,94692.00
2023-05-05T11:25:54.048Z,94686.00
2023-05-05T11:26:54.076Z,94686.00
2023-05-05T11:27:54.102Z,94686.00
2023-05-05T11:28:54.159Z,94682.00
2023-05-05T11:29:54.210Z,94684.00
2023-05-05T11:30:54.229Z,94680.00
2023-05-05T11:31:54.218Z,94678.00
2023-05-05T11:32:54.265Z,94678.00
2023-05-05T11:33:54.274Z,94680.00
2023-05-05T11:34:54.333Z,94676.00
2023-05-05T11:35:54.353Z,94676.00
2023-05-05T11:36:54.427Z,94674.00
2023-05-05T11:37:54.420Z,94670.00
2023-05-05T11:38:54.485Z,94672.00
2023-05-05T11:39:54.513Z,94659.00
2023-05-05T11:40:54.566Z,94657.00
2023-05-05T11:41:54.599Z,94657.00
2023-05-05T11:42:54.639Z,94657.00
2023-05-05T11:43:54.709Z,94657.00
2023-05-05T11:44:54.736Z,94651.00